Time;durP1;ratioP1;P1;durP2;ratioP2;P2;SDS_P1;SDS_P2;PMS_P1;PMS_P2;Temp;Humidity;BMP_temperature;BMP_pressure;BME280_temperature;BME280_humidity;BME280_pressure;Samples;Min_cycle;Max_cycle;Signal;HPM_P1;HPM_P2
2021/12/06 00:00:50;;;;;;;27.00;18.15;;;3.00;99.90;;;;;;5154933;27;20051;-67
2021/12/06 00:03:21;;;;;;;25.17;17.98;;;3.00;99.90;;;;;;5155822;27;20050;-67
2021/12/06 00:05:47;;;;;;;29.75;19.50;;;3.00;99.90;;;;;;5152660;27;20053;-67
2021/12/06 00:08:12;;;;;;;26.83;17.60;;;3.00;99.90;;;;;;5155606;27;20058;-67
2021/12/06 00:10:38;;;;;;;25.90;18.17;;;3.00;99.90;;;;;;5155875;27;20045;-67
2021/12/06 00:13:04;;;;;;;27.00;17.05;;;3.00;99.90;;;;;;5136771;27;20091;-67
2021/12/06 00:15:32;;;;;;;27.63;19.70;;;2.90;99.90;;;;;;5151167;27;20039;-67
2021/12/06 00:17:59;;;;;;;27.95;17.95;;;3.00;99.90;;;;;;5155730;27;20035;-67
2021/12/06 00:20:25;;;;;;;26.42;18.75;;;3.00;99.90;;;;;;5135866;27;20505;-67
2021/12/06 00:22:51;;;;;;;28.10;19.23;;;2.90;99.90;;;;;;5137354;27;20419;-67
2021/12/06 00:25:17;;;;;;;27.60;17.45;;;2.90;99.90;;;;;;5127644;27;20087;-67
2021/12/06 00:27:43;;;;;;;26.85;17.85;;;2.90;99.90;;;;;;5136026;27;20078;-67
2021/12/06 00:30:14;;;;;;;27.65;17.02;;;2.90;99.90;;;;;;5155470;27;20071;-67
2021/12/06 00:32:41;;;;;;;25.67;16.35;;;2.90;99.90;;;;;;5155301;27;20553;-67
2021/12/06 00:35:12;;;;;;;23.65;17.10;;;2.90;99.90;;;;;;5133516;27;20122;-67
2021/12/06 00:37:44;;;;;;;24.00;17.38;;;2.90;99.90;;;;;;5114845;27;20054;-67
2021/12/06 00:40:11;;;;;;;23.33;16.50;;;2.90;99.90;;;;;;5134435;27;20159;-67
2021/12/06 00:42:37;;;;;;;27.92;18.10;;;2.90;99.90;;;;;;5136152;27;20097;-67
2021/12/06 00:45:06;;;;;;;24.52;16.38;;;2.90;99.90;;;;;;5155271;27;20505;-67
2021/12/06 00:47:32;;;;;;;24.48;16.52;;;2.90;99.90;;;;;;5132896;27;20035;-67
2021/12/06 00:49:58;;;;;;;23.50;16.17;;;2.90;99.90;;;;;;5138344;27;20375;-67
2021/12/06 00:52:23;;;;;;;23.50;17.17;;;2.90;99.90;;;;;;5115838;27;20047;-66
2021/12/06 00:54:50;;;;;;;20.77;15.23;;;2.90;99.90;;;;;;5134142;27;20042;-67
2021/12/06 00:57:16;;;;;;;24.30;17.23;;;3.00;99.90;;;;;;5131360;27;20047;-66
2021/12/06 00:59:42;;;;;;;26.67;17.33;;;3.00;99.90;;;;;;5134047;27;20050;-67
2021/12/06 01:02:09;;;;;;;29.88;20.83;;;3.00;99.90;;;;;;5133561;27;20043;-67
2021/12/06 01:04:37;;;;;;;26.98;18.35;;;2.90;99.90;;;;;;5137058;27;20042;-66
2021/12/06 01:07:05;;;;;;;28.77;19.45;;;2.90;99.90;;;;;;5136091;27;20066;-67
2021/12/06 01:09:31;;;;;;;27.05;19.35;;;2.90;99.90;;;;;;5131597;27;20047;-67
2021/12/06 01:11:57;;;;;;;31.08;20.48;;;2.90;99.90;;;;;;5131922;27;20096;-66
2021/12/06 01:14:23;;;;;;;30.15;22.63;;;2.90;99.90;;;;;;5133733;27;20043;-67
2021/12/06 01:16:48;;;;;;;30.63;20.23;;;3.00;99.90;;;;;;5133276;27;20035;-66
2021/12/06 01:19:14;;;;;;;30.50;20.95;;;3.00;99.90;;;;;;5131707;27;20065;-67
2021/12/06 01:21:50;;;;;;;30.40;20.90;;;2.90;99.90;;;;;;5131879;27;20509;-67
2021/12/06 01:24:20;;;;;;;32.40;23.17;;;2.90;99.90;;;;;;5114762;27;20043;-67
2021/12/06 01:27:09;;;;;;;29.02;21.73;;;2.90;99.90;;;;;;5115095;27;20067;-67
2021/12/06 01:29:47;;;;;;;36.42;22.23;;;2.90;99.90;;;;;;5118216;27;20046;-66
2021/12/06 01:32:47;;;;;;;32.75;22.63;;;2.90;99.90;;;;;;5153130;27;20512;-67
2021/12/06 01:40:35;;;;;;;38.17;24.33;;;3.00;99.90;;;;;;5133319;27;20453;-66
2021/12/06 01:43:05;;;;;;;33.80;23.45;;;3.10;99.90;;;;;;5135492;27;20093;-67
2021/12/06 01:45:31;;;;;;;39.83;25.83;;;3.10;99.90;;;;;;5153141;27;20481;-67
2021/12/06 01:47:56;;;;;;;38.28;25.52;;;3.10;99.90;;;;;;5116708;27;20104;-66
2021/12/06 01:50:27;;;;;;;38.17;24.85;;;3.10;99.90;;;;;;5131141;27;20375;-67
2021/12/06 01:52:57;;;;;;;39.72;26.73;;;3.10;99.90;;;;;;5113961;27;20049;-67
2021/12/06 01:55:27;;;;;;;38.83;25.30;;;3.10;99.90;;;;;;5153580;27;20078;-66
2021/12/06 01:57:53;;;;;;;42.10;26.98;;;3.20;99.90;;;;;;5134986;27;20481;-66
2021/12/06 02:00:26;;;;;;;40.28;27.15;;;3.20;99.90;;;;;;5115563;27;20508;-67
2021/12/06 02:02:52;;;;;;;43.58;27.88;;;3.20;99.90;;;;;;5153642;27;20552;-67
2021/12/06 02:05:18;;;;;;;41.38;27.42;;;3.20;99.90;;;;;;5152839;27;20046;-67
2021/12/06 02:07:44;;;;;;;42.67;26.85;;;3.20;99.90;;;;;;5134290;27;20096;-68
2021/12/06 02:10:09;;;;;;;40.45;27.20;;;3.20;99.90;;;;;;5132668;27;20046;-67
2021/12/06 02:12:36;;;;;;;42.17;28.00;;;3.20;99.90;;;;;;5136279;27;20843;-67
2021/12/06 02:15:09;;;;;;;34.78;24.58;;;3.30;99.90;;;;;;5153284;27;20132;-67
2021/12/06 02:17:40;;;;;;;29.67;19.90;;;3.30;99.90;;;;;;5115694;27;20070;-67
2021/12/06 02:20:15;;;;;;;34.35;23.33;;;3.30;99.90;;;;;;5134154;27;20042;-67
2021/12/06 02:22:42;;;;;;;34.88;23.33;;;3.30;99.90;;;;;;5153187;27;20374;-68
2021/12/06 02:25:14;;;;;;;36.88;23.45;;;3.30;99.90;;;;;;5122921;27;20087;-67
2021/12/06 02:27:40;;;;;;;34.90;23.92;;;3.30;99.90;;;;;;5131797;27;20104;-67
2021/12/06 02:30:07;;;;;;;34.33;23.13;;;3.30;99.90;;;;;;5132680;28;20486;-67
2021/12/06 02:32:35;;;;;;;34.75;23.33;;;3.30;99.90;;;;;;5114589;28;20389;-67
2021/12/06 02:35:01;;;;;;;34.47;23.10;;;3.30;99.90;;;;;;5130095;27;20040;-67
2021/12/06 02:37:30;;;;;;;38.13;24.70;;;3.30;99.90;;;;;;5132427;27;20070;-66
2021/12/06 02:39:57;;;;;;;32.78;21.58;;;3.40;99.90;;;;;;5132631;28;20117;-67
2021/12/06 02:42:24;;;;;;;35.05;23.35;;;3.40;99.90;;;;;;5123831;27;20567;-67
2021/12/06 02:44:51;;;;;;;38.67;23.45;;;3.30;99.90;;;;;;5130542;27;20043;-67
2021/12/06 02:47:18;;;;;;;36.67;23.13;;;3.30;99.90;;;;;;5113740;28;20061;-66
2021/12/06 02:49:44;;;;;;;38.75;25.98;;;3.30;99.90;;;;;;5143027;27;20520;-66
2021/12/06 02:52:11;;;;;;;39.92;25.52;;;3.30;99.90;;;;;;5152727;27;20057;-67
2021/12/06 02:54:37;;;;;;;34.95;23.75;;;3.30;99.90;;;;;;5133075;27;20075;-67
2021/12/06 02:59:39;;;;;;;37.00;24.63;;;3.30;99.90;;;;;;5149598;27;20035;-66
2021/12/06 03:02:10;;;;;;;39.75;26.70;;;3.40;99.90;;;;;;5152370;27;20082;-67
2021/12/06 03:04:36;;;;;;;38.08;25.25;;;3.40;99.90;;;;;;5133039;27;20085;-66
2021/12/06 03:07:04;;;;;;;39.78;26.88;;;3.30;99.90;;;;;;5156602;27;20047;-66
2021/12/06 03:09:34;;;;;;;36.80;24.15;;;3.40;99.90;;;;;;5156463;27;20393;-66
2021/12/06 03:12:04;;;;;;;41.35;26.23;;;3.40;99.90;;;;;;5153157;27;20047;-66
2021/12/06 03:14:36;;;;;;;38.85;25.33;;;3.40;99.90;;;;;;5135938;27;20054;-67
2021/12/06 03:17:05;;;;;;;39.05;25.35;;;3.40;99.90;;;;;;5126963;27;20043;-67
2021/12/06 03:19:31;;;;;;;42.17;26.45;;;3.40;99.90;;;;;;5113672;28;20130;-67
2021/12/06 03:21:56;;;;;;;41.15;26.83;;;3.40;99.90;;;;;;5101894;27;20181;-66
2021/12/06 03:24:22;;;;;;;42.90;26.73;;;3.40;99.90;;;;;;5116968;27;20047;-66
2021/12/06 03:26:49;;;;;;;40.10;26.17;;;3.40;99.90;;;;;;5117587;27;20055;-67
2021/12/06 03:29:16;;;;;;;41.75;27.05;;;3.40;99.90;;;;;;5133850;27;20051;-67
2021/12/06 03:31:42;;;;;;;40.00;26.50;;;3.40;99.90;;;;;;5135178;27;20057;-67
2021/12/06 03:34:09;;;;;;;37.15;25.17;;;3.40;99.90;;;;;;5135564;27;20039;-67
2021/12/06 03:36:37;;;;;;;37.95;25.52;;;3.40;99.90;;;;;;5122968;27;20155;-67
2021/12/06 03:39:07;;;;;;;40.53;27.10;;;3.40;99.90;;;;;;5137074;27;20127;-67
2021/12/06 03:41:32;;;;;;;38.15;24.67;;;3.40;99.90;;;;;;5134100;27;20058;-67
2021/12/06 03:43:59;;;;;;;45.75;27.42;;;3.40;99.90;;;;;;5155878;27;20562;-67
2021/12/06 03:46:27;;;;;;;43.30;27.02;;;3.40;99.90;;;;;;5137753;27;20137;-67
2021/12/06 03:48:53;;;;;;;37.92;25.08;;;3.40;99.90;;;;;;5147342;27;20125;-67
2021/12/06 03:51:19;;;;;;;41.03;24.92;;;3.40;99.90;;;;;;5134405;27;20125;-67
2021/12/06 03:53:45;;;;;;;44.33;27.30;;;3.40;99.90;;;;;;5135276;27;20047;-67
2021/12/06 03:56:12;;;;;;;40.75;27.00;;;3.40;99.90;;;;;;5114448;27;20090;-67
2021/12/06 03:58:38;;;;;;;42.97;27.73;;;3.40;99.90;;;;;;5134688;27;20039;-67
2021/12/06 04:01:05;;;;;;;48.58;28.27;;;3.40;99.90;;;;;;5129182;27;20375;-67
2021/12/06 04:03:33;;;;;;;45.33;28.20;;;3.40;99.90;;;;;;5116774;27;20084;-67
2021/12/06 04:05:59;;;;;;;45.10;28.42;;;3.40;99.90;;;;;;5132273;27;20039;-67
2021/12/06 04:08:25;;;;;;;47.40;28.80;;;3.40;99.90;;;;;;5135185;27;20073;-67
2021/12/06 04:10:51;;;;;;;49.60;29.30;;;3.40;99.90;;;;;;5116340;27;20051;-67
2021/12/06 04:13:17;;;;;;;52.00;29.63;;;3.40;99.90;;;;;;5133403;27;20035;-67
2021/12/06 04:15:45;;;;;;;53.22;30.23;;;3.40;99.90;;;;;;5136034;27;20088;-67
2021/12/06 04:18:11;;;;;;;48.55;28.52;;;3.40;99.90;;;;;;5155561;27;20071;-67
2021/12/06 04:20:37;;;;;;;50.67;30.60;;;3.30;99.90;;;;;;5151828;27;20072;-67
2021/12/06 04:23:05;;;;;;;45.88;29.45;;;3.40;99.90;;;;;;5112853;28;20043;-67
2021/12/06 04:25:31;;;;;;;49.42;29.63;;;3.30;99.90;;;;;;5114093;28;20070;-67
2021/12/06 04:28:03;;;;;;;54.67;31.75;;;3.40;99.90;;;;;;5113043;28;20096;-67
2021/12/06 04:30:28;;;;;;;52.47;31.70;;;3.40;99.90;;;;;;5105228;27;20047;-67
2021/12/06 04:32:55;;;;;;;56.30;32.92;;;3.30;99.90;;;;;;5112600;28;20047;-66
2021/12/06 04:35:21;;;;;;;64.35;36.22;;;3.30;99.90;;;;;;5114121;27;20047;-67
2021/12/06 04:37:47;;;;;;;59.72;34.00;;;3.30;99.90;;;;;;5116004;27;20486;-67
2021/12/06 04:40:13;;;;;;;64.70;35.60;;;3.30;99.90;;;;;;5120241;27;20047;-67
2021/12/06 04:42:40;;;;;;;58.03;33.90;;;3.30;99.90;;;;;;5136364;27;20057;-66
2021/12/06 04:45:07;;;;;;;57.78;34.65;;;3.30;99.90;;;;;;5136821;27;20092;-67
2021/12/06 04:47:33;;;;;;;66.63;36.05;;;3.30;99.90;;;;;;5117046;27;20390;-67
2021/12/06 04:49:59;;;;;;;62.10;35.10;;;3.30;99.90;;;;;;5134317;27;20043;-67
2021/12/06 04:52:24;;;;;;;69.85;35.67;;;3.30;99.90;;;;;;5115740;27;20523;-67
2021/12/06 04:54:57;;;;;;;58.85;33.17;;;3.30;99.90;;;;;;5132685;27;20039;-67
2021/12/06 04:57:36;;;;;;;57.92;33.55;;;3.40;99.90;;;;;;5136106;27;20050;-67
2021/12/06 05:00:22;;;;;;;61.50;32.75;;;3.40;99.90;;;;;;5152044;27;20130;-66
2021/12/06 05:02:47;;;;;;;61.33;32.35;;;3.40;99.90;;;;;;5105828;28;20061;-67
2021/12/06 05:05:24;;;;;;;54.80;33.00;;;3.40;99.90;;;;;;5132110;27;20046;-67
2021/12/06 05:07:56;;;;;;;60.55;34.08;;;3.40;99.90;;;;;;5133231;27;20043;-67
2021/12/06 05:10:22;;;;;;;57.42;31.73;;;3.40;99.90;;;;;;5134976;27;20055;-67
2021/12/06 05:12:48;;;;;;;62.38;32.85;;;3.40;99.90;;;;;;5148963;27;20054;-67
2021/12/06 05:15:14;;;;;;;59.55;32.85;;;3.40;99.90;;;;;;5110912;28;20043;-67
2021/12/06 05:17:41;;;;;;;64.03;33.50;;;3.40;99.90;;;;;;5113321;28;20383;-67
2021/12/06 05:20:07;;;;;;;59.00;31.63;;;3.40;99.90;;;;;;5120317;27;20047;-67
2021/12/06 05:22:34;;;;;;;60.38;32.58;;;3.30;99.90;;;;;;5128564;27;20043;-67
2021/12/06 05:25:00;;;;;;;62.20;31.48;;;3.30;99.90;;;;;;5139131;27;20042;-67
2021/12/06 05:27:29;;;;;;;55.95;31.48;;;3.30;99.90;;;;;;5153172;27;20062;-67
2021/12/06 05:29:59;;;;;;;59.55;32.15;;;3.30;99.90;;;;;;5134985;27;20054;-66
2021/12/06 05:32:27;;;;;;;58.53;31.27;;;3.30;99.90;;;;;;5135518;27;20441;-67
2021/12/06 05:35:01;;;;;;;60.10;31.67;;;3.30;99.90;;;;;;5133803;27;20047;-67
2021/12/06 05:37:28;;;;;;;60.17;32.20;;;3.30;99.90;;;;;;5114092;27;20054;-66
2021/12/06 05:39:54;;;;;;;58.50;32.05;;;3.30;99.90;;;;;;5114714;27;20043;-67
2021/12/06 05:42:20;;;;;;;57.53;31.13;;;3.40;99.90;;;;;;5131118;27;20039;-67
2021/12/06 05:44:47;;;;;;;61.30;33.30;;;3.30;99.90;;;;;;5132408;27;20418;-67
2021/12/06 05:47:12;;;;;;;61.72;32.50;;;3.30;99.90;;;;;;5133195;27;20039;-67
2021/12/06 05:49:38;;;;;;;57.97;32.03;;;3.30;99.90;;;;;;5116546;27;20504;-67
2021/12/06 05:52:04;;;;;;;63.42;32.50;;;3.30;99.90;;;;;;5113856;27;20054;-67
2021/12/06 05:54:31;;;;;;;61.40;32.03;;;3.30;99.90;;;;;;5132950;27;20043;-67
2021/12/06 05:56:57;;;;;;;61.33;33.45;;;3.30;99.90;;;;;;5109226;28;20433;-66
2021/12/06 05:59:23;;;;;;;68.03;36.22;;;3.40;99.90;;;;;;5129444;27;20042;-67
2021/12/06 06:01:50;;;;;;;60.25;33.13;;;3.30;99.90;;;;;;5129218;27;20478;-67
2021/12/06 06:04:16;;;;;;;58.42;32.55;;;3.30;99.90;;;;;;5134842;27;20058;-67
2021/12/06 06:06:42;;;;;;;61.50;33.20;;;3.30;99.90;;;;;;5153128;27;20128;-67
2021/12/06 06:09:08;;;;;;;62.45;34.13;;;3.30;99.90;;;;;;5144351;27;20483;-67
2021/12/06 06:11:34;;;;;;;59.65;32.75;;;3.30;99.90;;;;;;5133896;27;20070;-67
2021/12/06 06:14:01;;;;;;;62.22;31.42;;;3.30;99.90;;;;;;5135207;27;20434;-67
2021/12/06 06:16:31;;;;;;;61.17;31.08;;;3.30;99.90;;;;;;5135229;27;20450;-66
2021/12/06 06:18:57;;;;;;;58.95;31.27;;;3.40;99.90;;;;;;5149063;27;20038;-67
2021/12/06 06:21:23;;;;;;;56.72;31.25;;;3.40;99.90;;;;;;5153413;27;20042;-67
2021/12/06 06:23:48;;;;;;;56.65;31.63;;;3.40;99.90;;;;;;5144155;27;20096;-67
2021/12/06 06:26:14;;;;;;;52.53;30.45;;;3.30;99.90;;;;;;5111384;28;20064;-67
2021/12/06 06:28:40;;;;;;;52.97;29.80;;;3.40;99.90;;;;;;5114816;27;20093;-66
2021/12/06 06:31:05;;;;;;;54.22;30.50;;;3.40;99.90;;;;;;5132211;27;20069;-67
2021/12/06 06:33:31;;;;;;;50.72;29.98;;;3.40;99.90;;;;;;5113420;28;20043;-67
2021/12/06 06:35:57;;;;;;;49.97;29.33;;;3.40;99.90;;;;;;5130681;27;20037;-67
2021/12/06 06:38:23;;;;;;;55.72;31.38;;;3.40;99.90;;;;;;5133683;27;20039;-67
2021/12/06 06:40:49;;;;;;;50.63;29.58;;;3.40;99.90;;;;;;5118083;27;20130;-66
2021/12/06 06:43:14;;;;;;;51.90;29.00;;;3.40;99.90;;;;;;5153951;27;20050;-67
2021/12/06 06:45:40;;;;;;;58.55;32.03;;;3.40;99.90;;;;;;5124284;27;20048;-67
2021/12/06 06:48:06;;;;;;;50.30;29.55;;;3.30;99.90;;;;;;5135703;27;20390;-67
2021/12/06 06:50:31;;;;;;;50.42;28.83;;;3.40;99.90;;;;;;5118105;27;20054;-67
2021/12/06 06:52:57;;;;;;;50.67;29.15;;;3.40;99.90;;;;;;5139473;27;20404;-67
2021/12/06 06:55:23;;;;;;;49.90;28.70;;;3.40;99.90;;;;;;5156350;27;20121;-67
2021/12/06 06:57:52;;;;;;;52.40;28.42;;;3.40;99.90;;;;;;5157057;27;20047;-67
2021/12/06 07:00:28;;;;;;;54.05;29.83;;;3.40;99.90;;;;;;5157029;27;20492;-67
2021/12/06 07:02:53;;;;;;;51.45;28.35;;;3.40;99.90;;;;;;5145781;27;20122;-67
2021/12/06 07:05:20;;;;;;;49.17;26.60;;;3.40;99.90;;;;;;5136150;27;20184;-67
2021/12/06 07:07:46;;;;;;;52.10;29.15;;;3.40;99.90;;;;;;5148026;27;20046;-67
2021/12/06 07:10:11;;;;;;;50.70;30.40;;;3.40;99.90;;;;;;5151825;27;20038;-66
2021/12/06 07:12:49;;;;;;;49.00;29.10;;;3.40;99.90;;;;;;5135625;27;20051;-67
2021/12/06 07:15:19;;;;;;;50.83;29.70;;;3.40;99.90;;;;;;5135634;27;20084;-66
2021/12/06 07:17:45;;;;;;;54.33;29.67;;;3.40;99.90;;;;;;5138520;27;20640;-67
2021/12/06 07:20:12;;;;;;;51.85;29.98;;;3.40;99.90;;;;;;5156593;27;20046;-67
2021/12/06 07:22:38;;;;;;;52.58;28.35;;;3.40;99.90;;;;;;5147533;27;20469;-66
2021/12/06 07:25:05;;;;;;;53.97;29.48;;;3.40;99.90;;;;;;5135668;27;20051;-66
2021/12/06 07:27:32;;;;;;;57.25;30.88;;;3.40;99.90;;;;;;5132112;27;20071;-66
2021/12/06 07:29:58;;;;;;;55.85;30.17;;;3.40;99.90;;;;;;5130277;27;20134;-67
2021/12/06 07:32:23;;;;;;;59.70;32.20;;;3.40;99.90;;;;;;5156697;27;20460;-66
2021/12/06 07:34:51;;;;;;;61.50;29.48;;;3.40;99.90;;;;;;5135523;27;20114;-66
2021/12/06 07:37:16;;;;;;;56.45;30.20;;;3.40;99.90;;;;;;5138271;27;20047;-67
2021/12/06 07:39:42;;;;;;;56.03;29.25;;;3.40;99.90;;;;;;5146641;27;20095;-66
2021/12/06 07:42:11;;;;;;;59.15;31.42;;;3.40;99.90;;;;;;5131739;27;20043;-66
2021/12/06 07:44:37;;;;;;;53.00;29.95;;;3.40;99.90;;;;;;5143025;27;20050;-67
2021/12/06 07:47:03;;;;;;;54.95;29.15;;;3.40;99.90;;;;;;5137765;27;20498;-67
2021/12/06 07:49:29;;;;;;;47.90;27.10;;;3.40;99.90;;;;;;5144106;27;20046;-66
2021/12/06 07:51:55;;;;;;;50.13;27.30;;;3.40;99.90;;;;;;5125936;27;20102;-67
2021/12/06 07:54:20;;;;;;;45.95;28.23;;;3.50;99.90;;;;;;5155698;27;20394;-66
2021/12/06 07:56:46;;;;;;;56.42;29.92;;;3.40;99.90;;;;;;5156172;27;20050;-67
2021/12/06 07:59:13;;;;;;;51.85;29.08;;;3.40;99.90;;;;;;5136558;27;20052;-66
2021/12/06 08:01:39;;;;;;;45.17;26.63;;;3.50;99.90;;;;;;5153301;27;20061;-67
2021/12/06 08:04:05;;;;;;;56.72;29.83;;;3.40;99.90;;;;;;5152301;27;20104;-67
2021/12/06 08:06:31;;;;;;;57.42;29.63;;;3.40;99.90;;;;;;5153471;27;20041;-67
2021/12/06 08:08:57;;;;;;;66.97;31.88;;;3.40;99.90;;;;;;5137318;27;20038;-67
2021/12/06 08:11:23;;;;;;;53.60;30.00;;;3.40;99.90;;;;;;5153402;27;20043;-66
2021/12/06 08:13:53;;;;;;;59.58;29.50;;;3.40;99.90;;;;;;5155055;27;20038;-67
2021/12/06 08:16:21;;;;;;;53.92;28.95;;;3.40;99.90;;;;;;5137026;27;20068;-66
2021/12/06 08:18:47;;;;;;;66.18;30.58;;;3.50;99.90;;;;;;5133242;27;20385;-67
2021/12/06 08:21:15;;;;;;;58.50;30.17;;;3.50;99.90;;;;;;5116246;27;20047;-67
2021/12/06 08:23:41;;;;;;;59.55;32.17;;;3.50;99.90;;;;;;5132720;27;20054;-67
2021/12/06 08:26:09;;;;;;;58.67;31.52;;;3.50;99.90;;;;;;5133961;27;20065;-67
2021/12/06 08:28:36;;;;;;;59.03;29.52;;;3.40;99.90;;;;;;5123382;27;20546;-67
2021/12/06 08:31:03;;;;;;;60.90;29.83;;;3.50;99.90;;;;;;5155225;27;20074;-67
2021/12/06 08:33:29;;;;;;;60.63;31.13;;;3.50;99.90;;;;;;5136418;27;20424;-67
2021/12/06 08:35:56;;;;;;;68.15;31.45;;;3.50;99.90;;;;;;5129215;27;20146;-67
2021/12/06 08:38:25;;;;;;;70.18;31.77;;;3.50;99.90;;;;;;5134565;27;20043;-67
2021/12/06 08:40:52;;;;;;;64.57;31.83;;;3.50;99.90;;;;;;5115445;27;20047;-67
2021/12/06 08:43:19;;;;;;;70.63;30.63;;;3.50;99.90;;;;;;5138182;27;20066;-67
2021/12/06 08:46:16;;;;;;;65.30;30.95;;;3.50;99.90;;;;;;5135991;27;20050;-67
2021/12/06 08:48:43;;;;;;;65.30;30.63;;;3.60;99.90;;;;;;5148907;27;20378;-67
2021/12/06 08:51:16;;;;;;;75.68;33.35;;;3.50;99.90;;;;;;5134186;27;20043;-68
2021/12/06 08:53:43;;;;;;;73.15;32.08;;;3.50;99.90;;;;;;5133324;27;20486;-66
2021/12/06 08:56:09;;;;;;;74.78;34.17;;;3.60;99.90;;;;;;5133137;27;20101;-67
2021/12/06 08:58:35;;;;;;;71.32;34.95;;;3.50;99.90;;;;;;5115845;27;20409;-66
2021/12/06 09:01:01;;;;;;;79.90;35.95;;;3.60;99.90;;;;;;5132382;27;20046;-67
2021/12/06 09:03:27;;;;;;;86.10;35.72;;;3.60;99.90;;;;;;5115568;27;20055;-67
2021/12/06 09:05:55;;;;;;;90.53;35.83;;;3.60;99.90;;;;;;5135718;27;20038;-67
2021/12/06 09:08:23;;;;;;;78.82;34.78;;;3.60;99.90;;;;;;5135429;27;20039;-67
2021/12/06 09:10:51;;;;;;;76.03;32.97;;;3.60;99.90;;;;;;5154625;27;20051;-67
2021/12/06 09:13:19;;;;;;;73.90;34.55;;;3.60;99.90;;;;;;5149717;27;21229;-67
2021/12/06 09:15:45;;;;;;;87.05;36.30;;;3.60;99.90;;;;;;5110413;28;20064;-67
2021/12/06 09:18:11;;;;;;;77.38;34.17;;;3.60;99.90;;;;;;5113394;28;20052;-66
2021/12/06 09:20:40;;;;;;;100.50;37.05;;;3.60;99.90;;;;;;5112699;28;20081;-67
2021/12/06 09:23:07;;;;;;;74.45;34.95;;;3.60;99.90;;;;;;5128221;27;20490;-67
2021/12/06 09:25:34;;;;;;;79.95;34.80;;;3.70;99.90;;;;;;5134189;27;20157;-66
2021/12/06 09:28:00;;;;;;;86.22;35.30;;;3.70;99.90;;;;;;5154096;27;20141;-66
2021/12/06 09:30:29;;;;;;;82.00;34.78;;;3.70;99.90;;;;;;5150984;27;20087;-67
2021/12/06 09:32:58;;;;;;;86.60;33.88;;;3.70;99.90;;;;;;5135267;27;20066;-66
2021/12/06 09:35:28;;;;;;;97.15;39.35;;;3.70;99.90;;;;;;5133785;27;20046;-66
2021/12/06 09:37:55;;;;;;;109.85;39.03;;;3.70;99.90;;;;;;5148263;27;20042;-66
2021/12/06 09:40:22;;;;;;;101.68;37.30;;;3.70;99.90;;;;;;5135184;27;20389;-67
2021/12/06 09:42:48;;;;;;;102.07;38.45;;;3.70;99.90;;;;;;5134935;27;20054;-67
2021/12/06 09:45:18;;;;;;;89.60;38.83;;;3.70;99.90;;;;;;5135424;27;20034;-67
2021/12/06 09:47:50;;;;;;;87.18;35.70;;;3.80;99.90;;;;;;5132025;27;20050;-66
2021/12/06 09:50:18;;;;;;;100.10;38.10;;;3.80;99.90;;;;;;5116777;27;20055;-67
2021/12/06 09:52:43;;;;;;;92.20;38.10;;;3.80;99.90;;;;;;5135149;27;20474;-67
2021/12/06 09:55:09;;;;;;;102.70;41.00;;;3.80;99.90;;;;;;5132710;27;20087;-67
2021/12/06 09:57:35;;;;;;;95.43;37.65;;;3.80;99.90;;;;;;5131965;27;20401;-67
2021/12/06 10:00:04;;;;;;;99.60;38.90;;;3.80;99.90;;;;;;5131030;27;20035;-67
2021/12/06 10:02:29;;;;;;;90.68;36.17;;;3.90;99.90;;;;;;5133034;27;20078;-66
2021/12/06 10:04:55;;;;;;;102.45;39.70;;;3.90;99.90;;;;;;5129958;27;20123;-67
2021/12/06 10:07:23;;;;;;;105.40;41.88;;;3.90;99.90;;;;;;5116447;27;20478;-66
2021/12/06 10:09:51;;;;;;;90.53;39.63;;;3.90;99.90;;;;;;5132571;27;20043;-68
2021/12/06 10:12:18;;;;;;;93.78;39.85;;;3.90;99.90;;;;;;5131762;27;20047;-69
2021/12/06 10:14:46;;;;;;;87.45;38.80;;;3.90;99.90;;;;;;5114159;28;20035;-68
2021/12/06 10:17:15;;;;;;;80.38;38.33;;;4.00;99.90;;;;;;5131630;27;20560;-68
2021/12/06 10:19:41;;;;;;;81.15;36.97;;;4.00;99.90;;;;;;5129017;27;20054;-67
2021/12/06 10:22:06;;;;;;;77.50;34.85;;;3.90;99.90;;;;;;5114224;27;20043;-68
2021/12/06 10:24:32;;;;;;;72.10;33.42;;;4.00;99.90;;;;;;5129983;27;20136;-67
2021/12/06 10:27:09;;;;;;;73.85;35.50;;;4.00;99.90;;;;;;5128977;27;20046;-67
2021/12/06 10:29:46;;;;;;;79.95;35.28;;;4.00;99.90;;;;;;5107838;27;20119;-69
2021/12/06 10:32:15;;;;;;;70.35;35.42;;;3.90;99.90;;;;;;5132347;27;20043;-67
2021/12/06 10:34:52;;;;;;;75.00;34.20;;;3.90;99.90;;;;;;5107756;28;20486;-67
2021/12/06 10:37:54;;;;;;;75.43;33.78;;;3.90;99.90;;;;;;5127283;27;20455;-67
2021/12/06 10:40:27;;;;;;;73.90;35.22;;;3.90;99.90;;;;;;5115236;27;20050;-67
2021/12/06 10:42:54;;;;;;;77.97;35.20;;;4.00;99.90;;;;;;5110423;28;20117;-67
2021/12/06 10:45:23;;;;;;;73.43;35.25;;;4.00;99.90;;;;;;5111393;28;20035;-67
2021/12/06 10:48:10;;;;;;;71.15;34.28;;;4.00;99.90;;;;;;5125685;28;20498;-67
2021/12/06 10:51:00;;;;;;;65.85;33.53;;;4.00;99.90;;;;;;5097304;28;20051;-67
2021/12/06 10:53:37;;;;;;;66.20;34.25;;;4.00;99.90;;;;;;5119645;27;20083;-67
2021/12/06 10:56:05;;;;;;;62.95;31.65;;;4.00;99.90;;;;;;5136859;27;20047;-67
2021/12/06 10:58:31;;;;;;;63.63;32.28;;;3.90;99.90;;;;;;5113122;27;20413;-66
2021/12/06 11:01:05;;;;;;;73.70;31.30;;;3.90;99.90;;;;;;5128336;27;20039;-66
2021/12/06 11:03:47;;;;;;;63.17;33.42;;;3.90;99.90;;;;;;5128007;27;20728;-66
2021/12/06 11:06:19;;;;;;;62.92;31.35;;;3.90;99.90;;;;;;5110696;28;20114;-67
2021/12/06 11:08:46;;;;;;;60.33;32.30;;;3.80;99.90;;;;;;5121229;28;20650;-67
2021/12/06 11:11:24;;;;;;;64.50;33.13;;;3.80;99.90;;;;;;5124466;27;20051;-67
2021/12/06 11:13:53;;;;;;;67.15;33.42;;;3.80;99.90;;;;;;5110756;28;20051;-66
2021/12/06 11:16:32;;;;;;;62.53;33.42;;;3.80;99.90;;;;;;5123794;27;20067;-66
2021/12/06 11:19:04;;;;;;;68.32;33.70;;;3.80;99.90;;;;;;5134792;27;20050;-66
2021/12/06 11:21:33;;;;;;;67.35;34.38;;;3.80;99.90;;;;;;5133462;27;20035;-66
2021/12/06 11:24:04;;;;;;;67.60;33.63;;;3.80;99.90;;;;;;5110514;27;20126;-66
2021/12/06 11:26:31;;;;;;;62.60;31.92;;;3.80;99.90;;;;;;5115058;27;20051;-66
2021/12/06 11:29:04;;;;;;;76.18;35.40;;;3.80;99.90;;;;;;5110180;27;20043;-66
2021/12/06 11:31:29;;;;;;;67.13;31.45;;;3.80;99.90;;;;;;5128479;27;20053;-65
2021/12/06 11:34:01;;;;;;;65.63;33.03;;;3.80;99.90;;;;;;5137402;27;20162;-65
2021/12/06 11:36:28;;;;;;;70.20;34.00;;;3.80;99.90;;;;;;5127604;27;20050;-65
2021/12/06 11:39:15;;;;;;;63.40;31.85;;;3.80;99.90;;;;;;5134789;27;20406;-65
2021/12/06 11:41:45;;;;;;;73.85;34.03;;;3.80;99.90;;;;;;5117038;27;20046;-65
2021/12/06 11:44:21;;;;;;;69.65;32.85;;;3.80;99.90;;;;;;5107668;28;20048;-65
2021/12/06 11:46:54;;;;;;;69.70;33.67;;;3.80;99.90;;;;;;5133191;27;20104;-66
2021/12/06 11:49:26;;;;;;;77.37;35.43;;;3.80;99.90;;;;;;5131830;27;20044;-66
2021/12/06 11:51:52;;;;;;;75.00;33.72;;;3.80;99.90;;;;;;5124728;27;20300;-66
2021/12/06 11:54:18;;;;;;;71.47;33.85;;;3.80;99.90;;;;;;5114079;27;20043;-66
2021/12/06 11:56:44;;;;;;;70.03;32.97;;;3.80;99.90;;;;;;5132264;27;20130;-66
2021/12/06 11:59:13;;;;;;;72.50;34.92;;;3.90;99.90;;;;;;5140337;27;20064;-66
2021/12/06 12:01:50;;;;;;;68.65;32.97;;;3.90;99.90;;;;;;5127814;27;20065;-66
2021/12/06 12:04:24;;;;;;;71.50;34.67;;;3.90;99.90;;;;;;5150864;27;20050;-66
2021/12/06 12:07:00;;;;;;;75.18;34.38;;;3.90;99.90;;;;;;5135107;27;20050;-66
2021/12/06 12:09:34;;;;;;;68.90;34.05;;;3.90;99.90;;;;;;5135676;27;20678;-66
2021/12/06 12:12:10;;;;;;;74.40;34.67;;;3.90;99.90;;;;;;5118028;27;20047;-66
2021/12/06 12:14:49;;;;;;;66.30;32.42;;;3.90;99.90;;;;;;5132999;27;20426;-66
2021/12/06 12:17:22;;;;;;;78.47;33.63;;;3.90;99.90;;;;;;5125881;27;20058;-66
2021/12/06 12:19:50;;;;;;;69.80;31.27;;;3.90;99.90;;;;;;5129633;27;20041;-67
2021/12/06 12:22:16;;;;;;;81.88;34.58;;;4.00;99.90;;;;;;5146910;27;20054;-67
2021/12/06 12:24:46;;;;;;;75.75;36.03;;;4.00;99.90;;;;;;5112758;27;20074;-67
2021/12/06 12:29:43;;;;;;;78.35;35.40;;;4.00;99.90;;;;;;5128029;27;20050;-67
2021/12/06 12:32:09;;;;;;;79.13;36.63;;;4.00;99.90;;;;;;5152594;27;20129;-66
2021/12/06 12:34:38;;;;;;;75.97;36.38;;;4.00;99.90;;;;;;5114567;27;20092;-67
2021/12/06 12:37:06;;;;;;;77.70;36.63;;;4.00;99.90;;;;;;5132801;27;20473;-66
2021/12/06 12:39:33;;;;;;;73.93;36.13;;;4.10;99.90;;;;;;5130885;27;20050;-66
2021/12/06 12:42:02;;;;;;;80.00;36.25;;;4.10;99.90;;;;;;5129385;27;20112;-67
2021/12/06 12:44:49;;;;;;;83.90;37.85;;;4.00;99.90;;;;;;5137271;27;20507;-66
2021/12/06 12:47:23;;;;;;;82.97;37.80;;;4.10;99.90;;;;;;5118918;27;20050;-67
2021/12/06 12:49:51;;;;;;;;;;;4.10;99.90;;;;;;5133294;27;20073;-66
2021/12/06 12:52:41;;;;;;;77.60;35.13;;;4.10;99.90;;;;;;5112136;27;20378;-66